createdAt,value
2022-09-07T19:57:35.457Z,19.14
2022-09-07T19:58:41.826Z,19.09
2022-09-07T19:59:45.789Z,19.10
2022-09-07T20:00:50.612Z,19.04
2022-09-07T20:01:53.911Z,19.05
2022-09-07T20:02:58.553Z,19.06
2022-09-07T20:04:03.364Z,19.04
2022-09-07T20:05:08.761Z,19.08
2022-09-07T20:06:12.638Z,19.06
2022-09-07T20:07:17.469Z,19.08
2022-09-07T20:08:19.445Z,19.00
2022-09-07T20:09:25.122Z,18.98
2022-09-07T20:10:30.890Z,18.99
2022-09-07T20:11:35.995Z,18.99
2022-09-07T20:12:40.975Z,18.96
2022-09-07T20:13:43.643Z,19.00
2022-09-07T20:14:48.270Z,19.02
2022-09-07T20:15:50.349Z,18.92
2022-09-07T20:16:55.122Z,18.87
2022-09-07T20:17:57.172Z,18.82
2022-09-07T20:19:02.515Z,18.83
2022-09-07T20:20:05.786Z,18.76
2022-09-07T20:21:13.185Z,18.64
2022-09-07T20:22:15.154Z,18.55
2022-09-07T20:23:19.793Z,18.48
2022-09-07T20:24:22.919Z,18.50
2022-09-07T20:25:27.562Z,18.44
2022-09-07T20:26:32.862Z,18.43
2022-09-07T20:27:38.319Z,18.41
2022-09-07T20:28:41.148Z,18.33
2022-09-07T20:29:45.786Z,18.28
2022-09-07T20:30:47.826Z,18.26
2022-09-07T20:31:53.674Z,18.29
2022-09-07T20:32:58.679Z,18.26
2022-09-07T20:34:00.689Z,18.25
2022-09-07T20:35:05.335Z,18.25
2022-09-07T20:36:09.595Z,18.22
2022-09-07T20:37:14.200Z,18.20
2022-09-07T20:38:17.407Z,18.26
2022-09-07T20:39:23.360Z,18.30
2022-09-07T20:40:25.433Z,18.29
2022-09-07T20:41:32.516Z,18.27
2022-09-07T20:42:40.727Z,18.23
2022-09-07T20:43:42.827Z,18.19
2022-09-07T20:44:47.444Z,18.15
2022-09-07T20:45:49.815Z,18.20
2022-09-07T20:46:55.055Z,18.20
2022-09-07T20:47:57.065Z,18.20
2022-09-07T20:49:02.016Z,18.16
2022-09-07T20:50:07.261Z,18.11
2022-09-07T20:51:13.090Z,18.07
2022-09-07T20:52:17.668Z,18.05
2022-09-07T20:53:19.742Z,18.05
2022-09-07T20:54:24.419Z,18.03
2022-09-07T20:55:26.383Z,18.01
2022-09-07T20:56:32.166Z,18.00
2022-09-07T20:57:38.032Z,18.01
2022-09-07T20:58:43.456Z,17.99
2022-09-07T20:59:45.481Z,18.07
2022-09-07T21:00:53.284Z,18.05
2022-09-07T21:01:55.347Z,18.18
2022-09-07T21:02:59.960Z,18.15
2022-09-07T21:04:02.448Z,18.13
2022-09-07T21:05:07.936Z,18.10
2022-09-07T21:06:10.567Z,18.09
2022-09-07T21:07:15.168Z,18.08
2022-09-07T21:08:17.285Z,18.05
2022-09-07T21:09:22.135Z,18.02
2022-09-07T21:10:24.470Z,17.97
2022-09-07T21:11:31.372Z,17.96
2022-09-07T21:12:33.422Z,17.94
2022-09-07T21:13:40.907Z,17.96
2022-09-07T21:14:46.129Z,17.93
2022-09-07T21:15:48.250Z,17.92
2022-09-07T21:16:53.074Z,17.91
2022-09-07T21:17:55.058Z,17.91
2022-09-07T21:19:01.862Z,17.91
2022-09-07T21:20:04.628Z,17.89
2022-09-07T21:21:24.950Z,17.87
2022-09-07T21:22:26.917Z,17.89
2022-09-07T21:23:32.664Z,17.87
2022-09-07T21:24:34.782Z,17.87
2022-09-07T21:25:47.825Z,17.86
2022-09-07T21:26:51.180Z,17.84
2022-09-07T21:27:55.681Z,17.85
2022-09-07T21:29:02.022Z,17.85
2022-09-07T21:30:07.548Z,17.85
2022-09-07T21:31:09.866Z,17.83
2022-09-07T21:32:14.651Z,17.82
2022-09-07T21:33:16.844Z,17.80
2022-09-07T21:34:21.453Z,17.86
2022-09-07T21:35:24.159Z,17.82
2022-09-07T21:36:29.508Z,17.77
2022-09-07T21:37:31.836Z,17.74
2022-09-07T21:38:37.405Z,17.72
2022-09-07T21:39:39.433Z,17.78
2022-09-07T21:40:44.062Z,17.78
2022-09-07T21:41:46.089Z,17.77
2022-09-07T21:42:50.700Z,17.73
2022-09-07T21:43:57.760Z,17.73
2022-09-07T21:45:07.159Z,17.73
2022-09-07T21:46:11.064Z,17.70
2022-09-07T21:47:15.899Z,17.70
2022-09-07T21:48:18.279Z,17.67
2022-09-07T21:49:22.979Z,17.65
2022-09-07T21:50:24.942Z,17.62
2022-09-07T21:51:30.153Z,17.60
2022-09-07T21:52:32.158Z,17.58
2022-09-07T21:53:37.282Z,17.55
2022-09-07T21:54:39.275Z,17.58
2022-09-07T21:55:43.962Z,17.54
2022-09-07T21:56:46.778Z,17.54
2022-09-07T21:57:51.661Z,17.54
2022-09-07T21:58:55.179Z,17.54
2022-09-07T21:59:59.859Z,17.52
2022-09-07T22:01:24.339Z,17.48
2022-09-07T22:02:26.421Z,17.49
2022-09-07T22:03:31.139Z,17.47
2022-09-07T22:04:33.194Z,17.49
2022-09-07T22:05:39.317Z,17.48
2022-09-07T22:06:41.575Z,17.48
2022-09-07T22:07:48.937Z,17.48
2022-09-07T22:08:51.265Z,17.51
2022-09-07T22:09:55.868Z,17.51
2022-09-07T22:11:04.398Z,17.59
2022-09-07T22:12:09.481Z,17.57
2022-09-07T22:13:11.923Z,17.56
2022-09-07T22:14:16.832Z,17.52
2022-09-07T22:15:18.951Z,17.53
2022-09-07T22:16:26.481Z,17.53
2022-09-07T22:17:28.584Z,17.52
2022-09-07T22:18:33.536Z,17.53
2022-09-07T22:19:39.610Z,17.52
2022-09-07T22:20:41.721Z,17.52
2022-09-07T22:21:46.342Z,17.54
2022-09-07T22:22:48.383Z,17.53
2022-09-07T22:23:55.772Z,17.59
2022-09-07T22:24:57.909Z,17.61
2022-09-07T22:26:02.714Z,17.61
2022-09-07T22:27:05.133Z,17.58
2022-09-07T22:28:09.769Z,17.63
2022-09-07T22:29:12.594Z,17.59
2022-09-07T22:30:17.311Z,17.60
2022-09-07T22:31:21.496Z,17.61
2022-09-07T22:32:28.843Z,17.59
2022-09-07T22:33:30.895Z,17.63
2022-09-07T22:34:35.568Z,17.61
2022-09-07T22:35:37.609Z,17.59
2022-09-07T22:36:44.488Z,17.55
2022-09-07T22:37:46.580Z,17.51
2022-09-07T22:38:52.611Z,17.48
2022-09-07T22:39:57.311Z,17.47
2022-09-07T22:41:07.273Z,17.56
2022-09-07T22:42:12.140Z,17.56
2022-09-07T22:43:14.176Z,17.57
2022-09-07T22:44:21.053Z,17.58
2022-09-07T22:45:23.114Z,17.56
2022-09-07T22:46:29.767Z,17.57
2022-09-07T22:47:41.943Z,17.62
2022-09-07T22:48:47.143Z,17.59
2022-09-07T22:49:49.192Z,17.63
2022-09-07T22:50:57.725Z,17.58
2022-09-07T22:52:02.397Z,17.59
2022-09-07T22:53:04.385Z,17.64
2022-09-07T22:54:09.501Z,17.63
2022-09-07T22:55:12.499Z,17.60
2022-09-07T22:56:19.216Z,17.54
2022-09-07T22:57:21.269Z,17.53
2022-09-07T22:58:29.022Z,17.56
2022-09-07T22:59:33.727Z,17.53
2022-09-07T23:00:36.458Z,17.53
2022-09-07T23:01:41.878Z,17.50
2022-09-07T23:02:46.808Z,17.50
2022-09-07T23:03:52.023Z,17.48
2022-09-07T23:04:54.347Z,17.45
2022-09-07T23:06:00.700Z,17.43
2022-09-07T23:07:03.184Z,17.41
2022-09-07T23:08:08.227Z,17.39
2022-09-07T23:09:15.018Z,17.38
2022-09-07T23:10:17.685Z,17.34
2022-09-07T23:11:24.259Z,17.33
2022-09-07T23:12:26.273Z,17.34
2022-09-07T23:13:31.138Z,17.33
2022-09-07T23:14:36.158Z,17.33
2022-09-07T23:15:38.161Z,17.31
2022-09-07T23:16:42.901Z,17.34
2022-09-07T23:17:47.656Z,17.33
2022-09-07T23:18:52.716Z,17.31
2022-09-07T23:19:54.738Z,17.31
2022-09-07T23:21:00.898Z,17.31
2022-09-07T23:22:02.948Z,17.29
2022-09-07T23:23:07.652Z,17.29
2022-09-07T23:24:12.129Z,17.28
2022-09-07T23:25:16.946Z,17.29
2022-09-07T23:26:19.892Z,17.25
2022-09-07T23:27:24.946Z,17.23
2022-09-07T23:28:27.234Z,17.23
2022-09-07T23:29:31.878Z,17.23
2022-09-07T23:30:35.799Z,17.26
2022-09-07T23:31:40.849Z,17.29
2022-09-07T23:32:42.897Z,17.29
2022-09-07T23:33:50.272Z,17.30
2022-09-07T23:34:52.313Z,17.34
2022-09-07T23:36:01.983Z,17.36
2022-09-07T23:37:04.269Z,17.43
2022-09-07T23:38:09.012Z,17.39
2022-09-07T23:39:11.233Z,17.38
2022-09-07T23:40:16.752Z,17.40
2022-09-07T23:41:18.822Z,17.37
2022-09-07T23:42:23.421Z,17.28
2022-09-07T23:43:27.437Z,17.28
2022-09-07T23:44:32.129Z,17.25
2022-09-07T23:45:34.144Z,17.20
2022-09-07T23:46:38.917Z,17.16
2022-09-07T23:47:41.135Z,17.19
2022-09-07T23:48:46.532Z,17.25
2022-09-07T23:49:51.279Z,17.17
2022-09-07T23:50:56.304Z,17.19
2022-09-07T23:51:58.443Z,17.08
2022-09-07T23:53:03.420Z,17.02
2022-09-07T23:54:05.666Z,16.93
2022-09-07T23:55:11.882Z,16.86
2022-09-07T23:56:13.924Z,16.83
2022-09-07T23:57:18.530Z,16.82
2022-09-07T23:58:22.002Z,16.74
2022-09-07T23:59:26.684Z,16.69
